createdAt,value
2022-08-19T00:03:50.076Z,88.40
2022-08-19T00:07:55.710Z,88.50
2022-08-19T00:12:04.055Z,88.80
2022-08-19T00:16:10.208Z,89.60
2022-08-19T00:20:20.790Z,89.40
2022-08-19T00:24:26.318Z,89.70
2022-08-19T00:28:34.387Z,89.50
2022-08-19T00:32:41.606Z,90.00
2022-08-19T00:36:47.465Z,90.00
2022-08-19T00:40:52.916Z,90.20
2022-08-19T00:45:01.147Z,90.10
2022-08-19T00:49:15.588Z,90.30
2022-08-19T00:53:24.265Z,90.20
2022-08-19T00:57:33.931Z,90.50
2022-08-19T01:01:44.734Z,90.60
2022-08-19T01:05:52.266Z,90.70
2022-08-19T01:09:58.153Z,90.70
2022-08-19T01:14:04.070Z,90.80
2022-08-19T01:18:15.014Z,91.00
2022-08-19T01:22:33.908Z,91.00
2022-08-19T01:26:44.837Z,91.30
2022-08-19T01:30:52.338Z,91.60
2022-08-19T01:34:57.703Z,91.80
2022-08-19T01:39:10.609Z,91.80
2022-08-19T01:43:16.276Z,91.90
2022-08-19T01:47:21.654Z,92.00
2022-08-19T01:51:27.118Z,91.90
2022-08-19T01:55:41.193Z,92.10
2022-08-19T01:59:48.694Z,91.90
2022-08-19T02:03:54.500Z,91.90
2022-08-19T02:08:02.818Z,92.00
2022-08-19T02:12:11.769Z,92.40
2022-08-19T02:16:17.083Z,92.80
2022-08-19T02:20:23.625Z,93.00
2022-08-19T02:24:30.078Z,92.60
2022-08-19T02:28:38.389Z,92.50
2022-08-19T02:32:44.911Z,92.30
2022-08-19T02:36:51.965Z,92.10
2022-08-19T02:41:00.075Z,92.20
2022-08-19T02:45:09.102Z,92.10
2022-08-19T02:49:17.532Z,92.40
2022-08-19T02:53:23.216Z,92.30
2022-08-19T02:57:28.695Z,92.30
2022-08-19T03:01:37.939Z,92.60
2022-08-19T03:05:46.778Z,93.00
2022-08-19T03:09:54.609Z,92.90
2022-08-19T03:14:01.272Z,92.80
2022-08-19T03:18:09.323Z,92.70
2022-08-19T03:22:15.708Z,92.80
2022-08-19T03:26:21.134Z,92.90
2022-08-19T03:30:26.496Z,93.00
2022-08-19T03:34:36.254Z,93.10
2022-08-19T03:38:44.188Z,93.00
2022-08-19T03:42:50.413Z,93.20
2022-08-19T03:46:59.631Z,93.20
2022-08-19T03:51:08.491Z,93.10
2022-08-19T03:55:13.941Z,93.10
2022-08-19T03:59:27.149Z,93.30
2022-08-19T04:03:32.742Z,93.60
2022-08-19T04:07:40.739Z,93.40
2022-08-19T04:11:48.390Z,93.50
2022-08-19T04:15:53.738Z,93.70
2022-08-19T04:19:59.140Z,93.60
2022-08-19T04:24:09.417Z,93.80
2022-08-19T04:28:16.626Z,93.80
2022-08-19T04:32:22.210Z,93.90
2022-08-19T04:36:30.103Z,93.70
2022-08-19T04:40:59.927Z,93.30
2022-08-19T04:45:05.493Z,93.20
2022-08-19T04:49:15.149Z,92.70
2022-08-19T04:53:21.084Z,92.70
2022-08-19T04:57:29.121Z,92.40
2022-08-19T05:01:37.618Z,92.20
2022-08-19T05:05:44.652Z,92.10
2022-08-19T05:09:57.116Z,92.10
2022-08-19T05:14:06.920Z,92.30
2022-08-19T05:18:24.679Z,92.70
2022-08-19T05:22:35.842Z,93.20
2022-08-19T05:26:42.186Z,93.60
2022-08-19T05:30:51.944Z,92.70
2022-08-19T05:34:57.625Z,92.20
2022-08-19T05:39:03.018Z,91.50
2022-08-19T05:43:09.292Z,91.00
2022-08-19T05:47:20.797Z,91.10
2022-08-19T05:51:29.178Z,91.10
2022-08-19T05:55:34.874Z,90.70
2022-08-19T05:59:40.365Z,89.40
2022-08-19T06:03:49.718Z,88.40
2022-08-19T06:07:55.502Z,90.00
2022-08-19T06:12:04.082Z,89.00
2022-08-19T06:16:09.722Z,89.50
2022-08-19T06:20:34.420Z,88.20
2022-08-19T06:24:45.685Z,88.30
2022-08-19T06:28:51.799Z,87.70
2022-08-19T06:32:57.339Z,87.60
2022-08-19T06:37:06.853Z,85.70
2022-08-19T06:41:12.426Z,85.60
2022-08-19T06:45:19.443Z,84.10
2022-08-19T06:49:30.333Z,82.80
2022-08-19T06:53:40.619Z,82.60
2022-08-19T06:57:46.520Z,82.30
2022-08-19T07:01:53.915Z,81.80
2022-08-19T07:06:00.518Z,81.10
2022-08-19T07:10:10.566Z,80.20
2022-08-19T07:14:19.629Z,80.20
2022-08-19T07:18:25.491Z,80.30
2022-08-19T07:22:33.765Z,80.10
2022-08-19T07:26:44.351Z,78.30
2022-08-19T07:30:51.228Z,77.50
2022-08-19T07:34:58.524Z,78.20
2022-08-19T07:39:07.746Z,76.80
2022-08-19T07:43:17.023Z,77.30
2022-08-19T07:47:49.490Z,76.70
2022-08-19T07:51:49.796Z,74.00
2022-08-19T07:55:55.798Z,73.40
2022-08-19T08:00:03.856Z,75.10
2022-08-19T08:04:30.402Z,73.40
2022-08-19T08:08:48.669Z,72.90
2022-08-19T08:13:09.508Z,73.40
2022-08-19T08:17:31.063Z,71.90
2022-08-19T08:21:46.433Z,71.70
2022-08-19T08:25:52.475Z,70.80
2022-08-19T08:29:57.906Z,70.00
2022-08-19T08:34:05.932Z,71.20
2022-08-19T08:38:11.417Z,69.90
2022-08-19T08:42:23.949Z,68.00
2022-08-19T08:46:34.707Z,69.80
2022-08-19T08:50:45.683Z,67.40
2022-08-19T08:54:55.480Z,65.20
2022-08-19T08:59:08.599Z,66.40
2022-08-19T09:03:23.282Z,64.70
2022-08-19T09:07:48.446Z,64.60
2022-08-19T09:12:11.679Z,64.00
2022-08-19T09:16:22.000Z,63.60
2022-08-19T09:20:34.948Z,65.80
2022-08-19T09:24:43.294Z,64.80
2022-08-19T09:28:50.904Z,64.60
2022-08-19T09:32:57.703Z,64.40
2022-08-19T09:37:04.167Z,62.80
2022-08-19T09:41:15.234Z,64.50
2022-08-19T09:45:24.406Z,63.00
2022-08-19T09:49:29.856Z,63.30
2022-08-19T09:53:35.385Z,64.00
2022-08-19T09:57:45.322Z,63.60
2022-08-19T10:01:52.299Z,63.20
2022-08-19T10:05:58.656Z,61.70
2022-08-19T10:10:04.002Z,60.00
2022-08-19T10:14:12.517Z,59.50
2022-08-19T10:18:19.156Z,60.70
2022-08-19T10:22:25.780Z,59.50
2022-08-19T10:26:33.230Z,57.30
2022-08-19T10:30:41.769Z,57.40
2022-08-19T10:34:49.119Z,56.50
2022-08-19T10:38:58.382Z,55.10
2022-08-19T10:43:03.907Z,53.20
2022-08-19T10:47:21.836Z,53.70
2022-08-19T10:51:46.524Z,53.30
2022-08-19T10:56:09.358Z,53.60
2022-08-19T11:00:16.895Z,52.00
2022-08-19T11:04:28.894Z,50.60
2022-08-19T11:08:36.056Z,49.50
2022-08-19T11:12:42.870Z,43.60
2022-08-19T11:16:48.554Z,40.00
2022-08-19T11:20:56.632Z,35.40
2022-08-19T11:25:01.695Z,33.20
2022-08-19T11:29:12.430Z,30.30
2022-08-19T11:33:17.838Z,29.20
2022-08-19T11:37:25.823Z,28.10
2022-08-19T11:41:31.605Z,27.30
2022-08-19T11:45:36.951Z,27.00
2022-08-19T11:49:42.606Z,27.70
2022-08-19T11:53:51.453Z,27.20
2022-08-19T11:57:56.804Z,27.20
2022-08-19T12:02:02.179Z,27.20
2022-08-19T12:06:09.181Z,26.40
2022-08-19T12:10:18.432Z,26.10
2022-08-19T12:14:25.257Z,25.60
2022-08-19T12:18:30.970Z,25.10
2022-08-19T12:22:36.399Z,24.80
2022-08-19T12:26:52.615Z,24.90
2022-08-19T12:31:02.574Z,24.60
2022-08-19T12:35:10.305Z,24.50
2022-08-19T12:39:15.602Z,24.30
2022-08-19T12:43:23.590Z,24.40
2022-08-19T12:47:29.635Z,24.20
2022-08-19T12:51:37.563Z,23.70
2022-08-19T12:55:43.773Z,23.80
2022-08-19T12:59:51.397Z,23.90
2022-08-19T13:03:56.791Z,23.90
2022-08-19T13:08:03.305Z,23.30
2022-08-19T13:12:13.936Z,23.50
2022-08-19T13:16:24.352Z,24.40
2022-08-19T13:20:30.769Z,26.10
2022-08-19T13:24:37.787Z,28.10
2022-08-19T13:28:56.902Z,29.80
2022-08-19T13:33:18.002Z,32.60
2022-08-19T13:37:42.213Z,34.50
2022-08-19T13:41:50.941Z,36.80
2022-08-19T13:45:57.917Z,38.00
2022-08-19T13:50:07.012Z,39.20
2022-08-19T13:54:13.122Z,41.10
2022-08-19T13:58:18.977Z,41.60
2022-08-19T14:02:24.360Z,42.90
2022-08-19T14:06:32.393Z,42.70
2022-08-19T14:10:37.937Z,43.80
2022-08-19T14:14:43.743Z,44.30
2022-08-19T14:18:49.120Z,44.50
2022-08-19T14:22:57.894Z,44.80
2022-08-19T14:27:04.450Z,45.00
2022-08-19T14:31:10.472Z,44.60
2022-08-19T14:35:17.442Z,44.80
2022-08-19T14:39:25.428Z,45.00
2022-08-19T14:43:30.901Z,45.00
2022-08-19T14:47:36.478Z,45.00
2022-08-19T14:51:46.700Z,45.70
2022-08-19T14:55:54.747Z,45.90
2022-08-19T15:00:01.006Z,46.30
2022-08-19T15:04:06.877Z,46.50
2022-08-19T15:08:12.346Z,46.80
2022-08-19T15:12:22.169Z,47.30
2022-08-19T15:16:29.230Z,47.80
2022-08-19T15:20:34.941Z,48.30
2022-08-19T15:24:47.850Z,48.60
2022-08-19T15:28:56.245Z,49.10
2022-08-19T15:33:02.122Z,49.30
2022-08-19T15:37:07.555Z,49.90
2022-08-19T15:41:26.559Z,50.10
2022-08-19T15:45:35.421Z,50.30
2022-08-19T15:49:40.736Z,50.10
2022-08-19T15:53:46.503Z,50.30
2022-08-19T15:58:04.216Z,50.30
2022-08-19T16:02:24.550Z,50.80
2022-08-19T16:06:38.288Z,51.10
2022-08-19T16:10:43.841Z,51.30
2022-08-19T16:14:50.026Z,51.30
2022-08-19T16:18:58.645Z,51.80
2022-08-19T16:23:05.165Z,51.90
2022-08-19T16:27:10.660Z,52.10
2022-08-19T16:31:18.036Z,52.20
2022-08-19T16:35:26.223Z,52.10
2022-08-19T16:39:31.923Z,52.10
2022-08-19T16:43:40.174Z,52.20
2022-08-19T16:47:45.564Z,52.10
2022-08-19T16:51:53.671Z,52.30
2022-08-19T16:55:59.479Z,52.80
2022-08-19T17:00:09.006Z,52.50
2022-08-19T17:04:14.662Z,52.80
2022-08-19T17:08:24.005Z,53.00
2022-08-19T17:12:32.146Z,52.80
2022-08-19T17:16:39.969Z,52.80
2022-08-19T17:20:46.457Z,53.10
2022-08-19T17:24:56.363Z,52.90
2022-08-19T17:29:04.278Z,53.40
2022-08-19T17:33:10.138Z,53.50
2022-08-19T17:37:16.351Z,53.40
2022-08-19T17:41:24.375Z,53.60
2022-08-19T17:45:30.439Z,53.80
2022-08-19T17:49:37.666Z,54.00
2022-08-19T17:53:43.095Z,54.20
2022-08-19T17:57:51.348Z,54.60
2022-08-19T18:01:56.807Z,55.50
2022-08-19T18:06:02.302Z,56.80
2022-08-19T18:10:08.477Z,57.20
2022-08-19T18:14:16.451Z,58.20
2022-08-19T18:18:21.845Z,59.00
2022-08-19T18:22:30.747Z,59.60
2022-08-19T18:26:36.133Z,59.80
2022-08-19T18:30:44.405Z,60.10
2022-08-19T18:34:49.802Z,61.00
2022-08-19T18:39:08.079Z,61.30
2022-08-19T18:43:26.759Z,61.30
2022-08-19T18:47:47.130Z,61.70
2022-08-19T18:51:54.065Z,62.00
2022-08-19T18:55:59.906Z,62.10
2022-08-19T19:00:05.413Z,62.30
2022-08-19T19:04:13.569Z,62.50
2022-08-19T19:08:18.929Z,62.60
2022-08-19T19:12:28.526Z,62.80
2022-08-19T19:16:34.564Z,63.20
2022-08-19T19:20:42.681Z,63.50
2022-08-19T19:24:48.154Z,63.90
2022-08-19T19:28:55.034Z,64.00
2022-08-19T19:33:01.826Z,64.30
2022-08-19T19:37:09.880Z,64.50
2022-08-19T19:41:16.370Z,64.60
2022-08-19T19:45:22.560Z,64.60
2022-08-19T19:49:28.209Z,64.90
2022-08-19T19:53:36.578Z,65.10
2022-08-19T19:57:42.166Z,65.10
2022-08-19T20:01:48.780Z,65.30
2022-08-19T20:05:54.974Z,65.70
2022-08-19T20:10:02.925Z,66.00
2022-08-19T20:14:11.175Z,65.70
2022-08-19T20:18:17.202Z,66.00
2022-08-19T20:22:23.214Z,66.10
2022-08-19T20:26:33.780Z,66.40
2022-08-19T20:30:42.021Z,66.20
2022-08-19T20:34:51.924Z,66.20
2022-08-19T20:38:57.275Z,66.40
2022-08-19T20:43:09.625Z,66.40
2022-08-19T20:47:15.002Z,66.70
2022-08-19T20:51:20.598Z,66.90
2022-08-19T20:55:26.609Z,67.30
2022-08-19T20:59:34.631Z,68.00
2022-08-19T21:03:43.154Z,68.30
2022-08-19T21:07:48.862Z,69.20
2022-08-19T21:11:54.246Z,69.60
2022-08-19T21:16:02.465Z,69.30
2022-08-19T21:20:12.060Z,69.10
2022-08-19T21:24:17.483Z,69.70
2022-08-19T21:28:34.963Z,70.30
2022-08-19T21:32:52.425Z,70.10
2022-08-19T21:36:58.153Z,70.40
2022-08-19T21:41:06.504Z,71.60
2022-08-19T21:45:13.585Z,71.90
2022-08-19T21:49:21.553Z,72.10
2022-08-19T21:53:34.107Z,72.80
2022-08-19T21:57:41.548Z,72.50
2022-08-19T22:01:51.493Z,72.90
2022-08-19T22:06:02.098Z,72.90
2022-08-19T22:10:09.427Z,73.70
2022-08-19T22:14:14.866Z,73.80
2022-08-19T22:18:20.702Z,74.10
2022-08-19T22:22:30.502Z,74.80
2022-08-19T22:26:35.948Z,75.50
2022-08-19T22:30:43.105Z,75.90
2022-08-19T22:34:48.488Z,75.80
2022-08-19T22:38:57.022Z,75.20
2022-08-19T22:43:03.610Z,75.30
2022-08-19T22:47:10.197Z,75.20
2022-08-19T22:51:28.018Z,75.10
2022-08-19T22:55:38.704Z,75.40
2022-08-19T22:59:44.716Z,75.70
2022-08-19T23:03:50.139Z,75.70
2022-08-19T23:07:57.413Z,75.60
2022-08-19T23:12:05.851Z,75.40
2022-08-19T23:16:11.977Z,75.20
2022-08-19T23:20:18.313Z,75.30
2022-08-19T23:24:23.761Z,75.10
2022-08-19T23:28:44.121Z,75.10
2022-08-19T23:32:49.591Z,75.10
2022-08-19T23:36:55.041Z,74.80
2022-08-19T23:41:03.059Z,75.00
2022-08-19T23:45:12.511Z,75.10
2022-08-19T23:49:17.916Z,75.10
2022-08-19T23:53:23.545Z,74.80
2022-08-19T23:57:28.903Z,74.90
